Terminal Aerodrome Forecast
Issued by NWS Cleveland, OH

Home | Current Version | Previous Version | Graphics & Text | Print | Product List | Glossary On
Versions: 1 2 3 4 5 6 7 8 9 10 11 12 13 14 15 16 17 18 19 20 21 22 23 24 25 26 27 28
000
FTUS41 KCLE 281045 AAB
TAFCLE
TAF AMD
KCLE 281045Z 2811/2912 03010KT 3SM -RA BR OVC010
      TEMPO 2811/2814 3/4SM -RA BR OVC003
     FM281600 01010KT P6SM OVC015
     FM282000 01010KT P6SM OVC025
     FM290600 01006KT P6SM BKN035=

USA.gov is the U.S. government's official web portal to all federal, state and local government web resources and services.